createdAt,value
2019-03-31T00:00:43.498Z,89.72
2019-03-31T00:03:48.325Z,89.58
2019-03-31T00:06:54.524Z,88.84
2019-03-31T00:10:01.124Z,87.98
2019-03-31T00:13:05.968Z,87.81
2019-03-31T00:16:10.803Z,87.92
2019-03-31T00:19:15.713Z,87.11
2019-03-31T00:22:20.778Z,86.74
2019-03-31T00:25:25.610Z,85.32
2019-03-31T00:28:30.475Z,83.71
2019-03-31T00:31:35.332Z,83.19
2019-03-31T00:34:43.308Z,83.12
2019-03-31T00:37:48.119Z,83.36
2019-03-31T00:40:52.999Z,83.46
2019-03-31T00:43:57.913Z,84.07
2019-03-31T00:47:02.783Z,84.21
2019-03-31T00:50:08.034Z,84.72
2019-03-31T00:53:12.873Z,84.64
2019-03-31T00:56:17.684Z,84.52
2019-03-31T00:59:22.616Z,84.88
2019-03-31T01:02:32.523Z,85.47
2019-03-31T01:05:39.379Z,85.62
2019-03-31T01:08:44.595Z,85.60
2019-03-31T01:11:50.197Z,85.68
2019-03-31T01:14:55.115Z,85.58
2019-03-31T01:18:00.287Z,85.33
2019-03-31T01:21:05.237Z,85.60
2019-03-31T01:24:10.276Z,85.81
2019-03-31T01:27:15.266Z,85.51
2019-03-31T01:30:20.909Z,86.07
2019-03-31T01:33:26.620Z,86.51
2019-03-31T01:36:31.561Z,87.22
2019-03-31T01:39:36.765Z,87.63
2019-03-31T01:42:41.586Z,88.04
2019-03-31T01:45:46.511Z,88.19
2019-03-31T01:48:51.414Z,88.38
2019-03-31T01:51:56.239Z,88.59
2019-03-31T01:55:01.107Z,88.60
2019-03-31T01:58:05.958Z,88.93
2019-03-31T02:01:13.173Z,88.99
2019-03-31T02:04:18.018Z,88.75
2019-03-31T02:07:22.982Z,88.90
2019-03-31T02:10:27.813Z,88.98
2019-03-31T02:13:32.664Z,89.15
2019-03-31T02:16:38.595Z,89.52
2019-03-31T02:19:43.570Z,89.62
2019-03-31T02:22:48.387Z,89.69
2019-03-31T02:25:53.209Z,89.76
2019-03-31T02:28:58.079Z,89.96
2019-03-31T02:32:22.100Z,90.03
2019-03-31T02:35:10.630Z,90.09
2019-03-31T02:38:15.556Z,90.22
2019-03-31T02:41:20.409Z,90.15
2019-03-31T02:44:25.231Z,90.24
2019-03-31T02:47:30.088Z,90.17
2019-03-31T02:50:59.637Z,90.00
2019-03-31T02:54:04.475Z,89.83
2019-03-31T02:57:09.676Z,89.60
2019-03-31T03:00:14.478Z,89.46
2019-03-31T03:03:20.489Z,89.32
2019-03-31T03:06:28.726Z,89.09
2019-03-31T03:09:35.678Z,88.87
2019-03-31T03:12:44.588Z,88.80
2019-03-31T03:16:14.485Z,88.55
2019-03-31T03:19:23.385Z,88.02
2019-03-31T03:22:31.237Z,87.68
2019-03-31T03:25:36.063Z,87.17
2019-03-31T03:28:40.865Z,87.09
2019-03-31T03:31:45.681Z,87.06
2019-03-31T03:34:50.555Z,86.70
2019-03-31T03:37:55.359Z,86.46
2019-03-31T03:41:00.174Z,86.45
2019-03-31T03:44:04.994Z,86.41
2019-03-31T03:47:09.811Z,86.51
2019-03-31T03:50:14.625Z,86.62
2019-03-31T03:53:19.438Z,86.80
2019-03-31T03:56:28.749Z,86.83
2019-03-31T03:59:30.776Z,86.76
2019-03-31T04:02:35.588Z,86.91
2019-03-31T04:06:17.347Z,86.86
2019-03-31T04:14:04.046Z,86.62
2019-03-31T04:18:02.896Z,85.71
2019-03-31T04:21:12.783Z,85.65
2019-03-31T04:41:29.365Z,85.58
2019-03-31T04:49:59.328Z,84.86
2019-03-31T05:00:48.415Z,84.02
2019-03-31T05:04:12.940Z,83.63
2019-03-31T05:39:42.948Z,83.13
2019-03-31T05:50:55.928Z,82.44
2019-03-31T05:54:10.162Z,81.95
2019-03-31T06:09:10.171Z,79.78
2019-03-31T06:12:20.327Z,79.55
2019-03-31T06:16:20.806Z,79.41
2019-03-31T06:19:51.033Z,79.51
2019-03-31T06:25:10.913Z,78.72
2019-03-31T06:27:01.715Z,78.93
2019-03-31T06:30:39.346Z,78.95
2019-03-31T06:33:49.461Z,78.44
2019-03-31T06:37:33.984Z,78.43
2019-03-31T06:45:06.047Z,77.54
2019-03-31T06:48:34.917Z,76.73
2019-03-31T06:52:15.433Z,76.00
2019-03-31T06:56:46.975Z,75.81
2019-03-31T07:03:32.961Z,74.28
2019-03-31T07:06:50.397Z,73.64
2019-03-31T07:33:37.632Z,65.09
2019-03-31T07:41:26.879Z,64.09
2019-03-31T07:49:00.904Z,60.30
2019-03-31T07:52:56.229Z,60.13
2019-03-31T07:56:26.374Z,60.23
2019-03-31T08:03:39.681Z,58.44
2019-03-31T08:06:54.346Z,56.40
2019-03-31T08:10:47.310Z,56.15
2019-03-31T08:14:18.006Z,55.81
2019-03-31T08:18:26.206Z,55.74
2019-03-31T08:22:17.458Z,56.79
2019-03-31T08:26:02.378Z,54.83
2019-03-31T08:29:26.510Z,52.45
2019-03-31T08:32:34.653Z,52.14
2019-03-31T08:35:49.024Z,50.80
2019-03-31T08:38:55.778Z,50.68
2019-03-31T08:42:27.696Z,50.13
2019-03-31T08:45:33.094Z,50.76
2019-03-31T08:48:38.599Z,52.07
2019-03-31T08:51:46.462Z,51.49
2019-03-31T08:55:19.538Z,51.20
2019-03-31T08:59:00.077Z,51.25
2019-03-31T09:10:20.830Z,52.02
2019-03-31T09:13:39.563Z,50.73
2019-03-31T09:23:12.245Z,49.86
2019-03-31T09:26:50.497Z,49.46
2019-03-31T09:34:11.574Z,50.11
2019-03-31T09:37:21.239Z,49.81
2019-03-31T09:40:42.575Z,49.63
2019-03-31T09:44:25.685Z,49.56
2019-03-31T09:47:52.133Z,49.44
2019-03-31T09:50:57.374Z,50.46
2019-03-31T09:54:02.824Z,50.65
2019-03-31T10:02:32.490Z,51.60
2019-03-31T10:05:10.130Z,47.27
2019-03-31T10:08:14.964Z,47.53
2019-03-31T10:11:19.764Z,46.94
2019-03-31T10:14:24.647Z,45.77
2019-03-31T10:17:29.459Z,43.54
2019-03-31T10:20:34.262Z,43.49
2019-03-31T10:23:39.366Z,45.17
2019-03-31T10:26:44.201Z,47.10
2019-03-31T10:29:49.084Z,47.46
2019-03-31T10:32:53.984Z,45.39
2019-03-31T10:35:58.837Z,46.07
2019-03-31T10:39:05.399Z,44.87
2019-03-31T10:42:10.247Z,44.95
2019-03-31T10:45:15.096Z,44.98
2019-03-31T10:48:21.285Z,44.52
2019-03-31T10:51:26.601Z,46.92
2019-03-31T10:54:31.414Z,46.75
2019-03-31T10:57:36.225Z,47.32
2019-03-31T11:00:44.312Z,45.98
2019-03-31T11:03:47.611Z,45.74
2019-03-31T11:06:58.959Z,46.77
2019-03-31T11:09:59.049Z,47.76
2019-03-31T11:13:04.007Z,46.50
2019-03-31T11:16:08.835Z,46.91
2019-03-31T11:19:13.660Z,45.41
2019-03-31T11:22:25.030Z,45.33
2019-03-31T11:25:29.844Z,46.98
2019-03-31T11:28:34.663Z,46.95
2019-03-31T11:31:39.486Z,44.45
2019-03-31T11:34:44.360Z,41.58
2019-03-31T11:37:49.307Z,42.39
2019-03-31T11:40:54.128Z,44.61
2019-03-31T11:43:58.955Z,45.20
2019-03-31T11:47:03.812Z,45.76
2019-03-31T11:50:09.683Z,44.09
2019-03-31T11:53:14.522Z,43.42
2019-03-31T11:56:19.363Z,45.68
2019-03-31T11:59:24.192Z,46.18
2019-03-31T12:02:29.003Z,46.12
2019-03-31T12:05:33.860Z,44.74
2019-03-31T12:08:41.053Z,45.46
2019-03-31T12:11:46.064Z,43.83
2019-03-31T12:15:00.364Z,43.95
2019-03-31T12:17:57.515Z,43.17
2019-03-31T12:21:05.843Z,43.31
2019-03-31T12:24:10.375Z,44.26
2019-03-31T12:27:16.268Z,44.79
2019-03-31T12:30:28.208Z,45.79
2019-03-31T12:33:36.090Z,45.05
2019-03-31T12:36:40.904Z,44.42
2019-03-31T12:39:48.036Z,44.28
2019-03-31T12:42:52.874Z,44.14
2019-03-31T12:45:57.699Z,44.42
2019-03-31T12:49:02.558Z,44.40
2019-03-31T12:52:07.373Z,44.36
2019-03-31T12:55:12.365Z,43.50
2019-03-31T12:58:17.223Z,42.87
2019-03-31T13:01:22.084Z,41.89
2019-03-31T13:04:26.969Z,41.48
2019-03-31T13:07:31.768Z,41.16
2019-03-31T13:10:36.677Z,41.62
2019-03-31T13:13:44.549Z,43.18
2019-03-31T13:16:52.141Z,43.85
2019-03-31T13:19:56.982Z,44.47
2019-03-31T13:23:01.804Z,44.02
2019-03-31T13:26:06.625Z,42.28
2019-03-31T13:29:11.482Z,43.17
2019-03-31T13:32:16.294Z,43.73
2019-03-31T13:35:21.119Z,43.76
2019-03-31T13:38:26.022Z,43.39
2019-03-31T13:41:32.715Z,43.73
2019-03-31T13:44:37.551Z,43.75
2019-03-31T13:47:42.379Z,42.73
2019-03-31T13:50:47.207Z,43.95
2019-03-31T13:53:52.034Z,43.43
2019-03-31T13:56:57.361Z,42.07
2019-03-31T14:00:02.759Z,41.67
2019-03-31T14:03:07.570Z,42.19
2019-03-31T14:06:12.398Z,42.59
2019-03-31T14:09:17.224Z,42.82
2019-03-31T14:12:22.036Z,42.41
2019-03-31T14:15:26.868Z,44.01
2019-03-31T14:18:31.720Z,43.60
2019-03-31T14:21:39.944Z,44.46
2019-03-31T14:24:43.074Z,45.90
2019-03-31T14:27:47.883Z,46.31
2019-03-31T14:30:52.703Z,44.82
2019-03-31T14:33:57.542Z,45.28
2019-03-31T14:37:02.354Z,44.86
2019-03-31T14:40:07.362Z,45.76
2019-03-31T14:43:14.995Z,45.98
2019-03-31T14:46:19.915Z,45.61
2019-03-31T14:49:25.980Z,44.97
2019-03-31T14:52:30.961Z,44.64
2019-03-31T14:55:35.944Z,45.49
2019-03-31T14:58:40.716Z,43.88
2019-03-31T15:01:45.543Z,43.17
2019-03-31T15:04:50.389Z,45.07
2019-03-31T15:07:58.293Z,45.06
2019-03-31T15:11:01.815Z,46.08
2019-03-31T15:14:09.907Z,45.84
2019-03-31T15:17:14.779Z,46.25
2019-03-31T15:20:22.979Z,46.16
2019-03-31T15:23:29.424Z,45.49
2019-03-31T15:26:35.396Z,45.12
2019-03-31T15:29:40.235Z,44.53
2019-03-31T15:32:45.092Z,44.98
2019-03-31T15:35:49.942Z,45.37
2019-03-31T15:39:07.847Z,45.17
2019-03-31T15:42:01.317Z,45.48
2019-03-31T15:45:06.979Z,44.73
2019-03-31T15:48:11.872Z,44.54
2019-03-31T15:51:16.707Z,44.59
2019-03-31T15:54:21.681Z,43.71
2019-03-31T15:57:26.527Z,43.40
2019-03-31T16:00:31.382Z,44.39
2019-03-31T16:03:38.994Z,44.76
2019-03-31T16:06:43.818Z,44.89
2019-03-31T16:09:50.217Z,45.00
2019-03-31T16:13:00.335Z,45.47
2019-03-31T16:16:15.395Z,44.71
2019-03-31T16:19:21.833Z,46.13
2019-03-31T16:22:29.360Z,46.09
2019-03-31T16:25:39.022Z,46.63
2019-03-31T16:29:00.633Z,46.64
2019-03-31T16:35:43.867Z,46.28
2019-03-31T16:38:50.795Z,46.74
2019-03-31T16:41:55.547Z,47.98
2019-03-31T16:45:30.259Z,48.17
2019-03-31T16:48:50.402Z,49.10
2019-03-31T16:51:57.854Z,49.84
2019-03-31T16:55:02.991Z,49.15
2019-03-31T16:58:09.471Z,48.94
2019-03-31T17:01:13.995Z,48.97
2019-03-31T17:04:30.739Z,49.59
2019-03-31T17:07:41.129Z,50.66
2019-03-31T17:10:45.819Z,51.17
2019-03-31T17:13:52.173Z,51.62
2019-03-31T17:16:59.722Z,51.79
2019-03-31T17:20:05.737Z,52.15
2019-03-31T17:23:10.326Z,52.82
2019-03-31T17:26:15.164Z,53.81
2019-03-31T17:29:27.200Z,54.28
2019-03-31T17:32:54.270Z,54.77
2019-03-31T17:36:01.934Z,54.81
2019-03-31T17:39:08.495Z,55.26
2019-03-31T17:42:13.159Z,55.39
2019-03-31T17:45:18.864Z,55.49
2019-03-31T17:48:26.264Z,55.35
2019-03-31T17:51:30.865Z,55.40
2019-03-31T17:54:35.343Z,55.17
2019-03-31T17:57:42.382Z,55.26
2019-03-31T18:00:46.086Z,56.04
2019-03-31T18:03:51.040Z,56.57
2019-03-31T18:06:55.615Z,56.96
2019-03-31T18:10:00.499Z,57.67
2019-03-31T18:13:05.549Z,57.80
2019-03-31T18:16:10.171Z,58.24
2019-03-31T18:19:14.859Z,58.77
2019-03-31T18:22:23.121Z,58.68
2019-03-31T18:25:28.028Z,59.87
2019-03-31T18:28:33.497Z,59.52
2019-03-31T18:31:42.063Z,59.21
2019-03-31T18:34:47.144Z,59.83
2019-03-31T18:37:54.495Z,59.43
2019-03-31T18:45:15.190Z,60.42
2019-03-31T18:48:20.297Z,60.71
2019-03-31T18:51:25.779Z,61.10
2019-03-31T18:54:51.598Z,61.20
2019-03-31T18:58:25.665Z,61.34
2019-03-31T19:01:52.050Z,61.58
2019-03-31T19:08:59.785Z,62.00
2019-03-31T19:12:22.951Z,62.10
2019-03-31T19:16:04.534Z,62.44
2019-03-31T19:19:29.967Z,62.96
2019-03-31T19:22:56.232Z,63.25
2019-03-31T19:26:26.991Z,63.41
2019-03-31T19:29:50.829Z,63.61
2019-03-31T19:33:44.388Z,64.29
2019-03-31T19:37:12.244Z,64.79
2019-03-31T19:44:30.793Z,65.09
2019-03-31T19:48:01.341Z,66.17
2019-03-31T19:51:42.381Z,66.55
2019-03-31T19:59:29.321Z,67.41
2019-03-31T20:07:30.265Z,68.35
2019-03-31T20:34:30.904Z,71.58
2019-03-31T20:49:31.750Z,72.59
2019-03-31T20:52:56.990Z,72.60
2019-03-31T20:56:05.387Z,72.89
2019-03-31T20:59:11.927Z,73.04
2019-03-31T21:02:32.073Z,72.99
2019-03-31T21:28:54.686Z,75.26
2019-03-31T21:32:33.689Z,75.68
2019-03-31T21:47:59.772Z,76.21
2019-03-31T21:51:34.443Z,76.36
2019-03-31T21:54:45.843Z,76.32
2019-03-31T21:58:02.451Z,76.18
2019-03-31T22:01:13.990Z,76.64
2019-03-31T22:04:39.767Z,76.77
2019-03-31T22:08:20.702Z,76.82
2019-03-31T22:11:35.920Z,76.86
2019-03-31T22:15:13.514Z,76.95
2019-03-31T22:18:18.665Z,76.90
2019-03-31T22:22:10.502Z,76.89
2019-03-31T22:25:42.265Z,77.01
2019-03-31T22:28:51.651Z,76.94
2019-03-31T22:35:34.780Z,76.88
2019-03-31T22:39:09.077Z,77.04
2019-03-31T22:42:42.276Z,77.09
2019-03-31T22:45:47.388Z,77.30
2019-03-31T22:48:56.243Z,77.56
2019-03-31T22:52:01.526Z,77.56
2019-03-31T22:59:35.940Z,77.23
2019-03-31T23:03:17.687Z,77.27
2019-03-31T23:06:25.253Z,77.31
2019-03-31T23:09:42.068Z,77.39
2019-03-31T23:12:49.933Z,77.59
2019-03-31T23:15:54.996Z,77.64
2019-03-31T23:18:59.743Z,77.62
2019-03-31T23:22:28.277Z,77.71
2019-03-31T23:25:50.968Z,77.59
2019-03-31T23:28:59.837Z,77.84
2019-03-31T23:35:36.389Z,78.06
2019-03-31T23:38:41.411Z,78.05
2019-03-31T23:41:46.703Z,78.06
2019-03-31T23:44:59.084Z,78.10
2019-03-31T23:48:32.480Z,78.27
2019-03-31T23:51:41.005Z,78.54
2019-03-31T23:54:45.936Z,78.71
2019-03-31T23:57:54.149Z,79.11
